Wetterdaten: Woche 04.06.18 - 10.06.18 (KW23)
Datum Zeit Temp. A. Feuchte A. Luftdruck Regen Wind Richtung Taupunkt Windchill Windben
04.06.2018 00:00 18,1 C 80 % 1013,3 hPa 0,0 l/m 0,1 km/h N 14,5 C 18,1 C 1,2 km/h
04.06.2018 01:00 17,7 C 81 % 1013,1 hPa 0,0 l/m 0,1 km/h N 14,4 C 17,7 C 0,8 km/h
04.06.2018 02:00 17,5 C 81 % 1012,7 hPa 0,0 l/m 0,5 km/h N 14,2 C 17,5 C 4,4 km/h
04.06.2018 03:00 16,9 C 81 % 1012,4 hPa 0,0 l/m 0,5 km/h N 13,6 C 16,9 C 2,0 km/h
04.06.2018 04:00 16,2 C 81 % 1012,0 hPa 0,0 l/m 0,0 km/h N 13,0 C 16,2 C 0,0 km/h
04.06.2018 05:00 15,7 C 82 % 1011,9 hPa 0,0 l/m 0,1 km/h N 12,6 C 15,7 C 0,8 km/h
04.06.2018 06:00 16,1 C 82 % 1011,8 hPa 0,0 l/m 0,0 km/h N 13,0 C 16,1 C 0,8 km/h
04.06.2018 07:00 17,1 C 82 % 1011,9 hPa 0,0 l/m 0,2 km/h N 14,0 C 17,1 C 2,0 km/h
04.06.2018 08:00 19,0 C 82 % 1011,8 hPa 0,0 l/m 0,0 km/h N 15,7 C 19,0 C 0,0 km/h
04.06.2018 09:00 21,4 C 77 % 1011,5 hPa 0,0 l/m 0,0 km/h N 17,2 C 21,4 C 0,4 km/h
04.06.2018 10:00 24,7 C 69 % 1011,2 hPa 0,0 l/m 0,2 km/h N 18,7 C 24,7 C 4,0 km/h
04.06.2018 11:00 27,2 C 61 % 1010,7 hPa 0,0 l/m 0,3 km/h N 18,8 C 27,2 C 4,0 km/h
04.06.2018 12:00 28,4 C 55 % 1010,1 hPa 0,0 l/m 0,6 km/h N 18,5 C 28,4 C 5,6 km/h
04.06.2018 13:00 28,1 C 54 % 1009,2 hPa 0,0 l/m 1,8 km/h N 17,8 C 28,1 C 9,7 km/h
04.06.2018 14:00 28,6 C 51 % 1008,6 hPa 0,0 l/m 0,5 km/h N 17,5 C 28,6 C 7,2 km/h
04.06.2018 15:00 28,1 C 51 % 1008,2 hPa 0,0 l/m 1,2 km/h N 16,9 C 28,1 C 8,0 km/h
04.06.2018 16:00 26,5 C 57 % 1007,7 hPa 0,0 l/m 2,5 km/h N 17,2 C 26,5 C 11,3 km/h
04.06.2018 17:00 26,4 C 56 % 1007,1 hPa 0,0 l/m 0,5 km/h N 16,8 C 26,4 C 5,2 km/h
04.06.2018 18:00 26,5 C 55 % 1006,6 hPa 0,0 l/m 0,4 km/h N 16,5 C 26,5 C 4,8 km/h
04.06.2018 19:00 26,0 C 55 % 1006,7 hPa 0,0 l/m 0,8 km/h N 16,2 C 26,0 C 7,2 km/h
04.06.2018 20:00 24,5 C 61 % 1006,8 hPa 0,0 l/m 0,1 km/h N 16,4 C 24,5 C 1,6 km/h
04.06.2018 21:00 22,0 C 68 % 1006,9 hPa 0,0 l/m 0,0 km/h N 15,9 C 22,0 C 0,4 km/h
04.06.2018 22:00 20,2 C 75 % 1006,9 hPa 0,0 l/m 0,0 km/h N 15,7 C 20,2 C 0,8 km/h
04.06.2018 23:00 19,2 C 78 % 1006,9 hPa 0,0 l/m 0,1 km/h N 15,2 C 19,2 C 2,8 km/h
05.06.2018 00:00 18,0 C 79 % 1006,9 hPa 0,0 l/m 0,0 km/h N 14,2 C 18,0 C 0,0 km/h
05.06.2018 01:00 16,9 C 81 % 1006,8 hPa 0,0 l/m 0,0 km/h N 13,5 C 16,9 C 0,4 km/h
05.06.2018 02:00 16,8 C 81 % 1006,8 hPa 0,0 l/m 0,8 km/h N 13,5 C 16,8 C 4,8 km/h
05.06.2018 03:00 16,8 C 81 % 1006,8 hPa 0,0 l/m 0,5 km/h N 13,5 C 16,8 C 3,6 km/h
05.06.2018 04:00 16,3 C 81 % 1007,1 hPa 0,0 l/m 0,0 km/h N 13,0 C 16,3 C 1,2 km/h
05.06.2018 05:00 15,6 C 82 % 1007,3 hPa 0,0 l/m 0,0 km/h N 12,5 C 15,6 C 0,0 km/h
05.06.2018 06:00 16,0 C 82 % 1007,4 hPa 0,0 l/m 0,0 km/h N 13,0 C 16,0 C 0,0 km/h
05.06.2018 07:00 17,9 C 82 % 1007,6 hPa 0,0 l/m 0,1 km/h N 14,7 C 17,9 C 1,6 km/h
05.06.2018 08:00 21,0 C 78 % 1008,0 hPa 0,0 l/m 3,0 km/h N 17,0 C 21,0 C 8,0 km/h
05.06.2018 09:00 23,9 C 71 % 1007,8 hPa 0,0 l/m 2,5 km/h N 18,3 C 23,9 C 10,1 km/h
05.06.2018 10:00 25,3 C 64 % 1007,9 hPa 0,0 l/m 3,7 km/h N 18,0 C 25,3 C 12,9 km/h
05.06.2018 11:00 26,7 C 59 % 1007,9 hPa 0,0 l/m 3,6 km/h N 17,9 C 26,7 C 12,5 km/h
05.06.2018 12:00 27,5 C 54 % 1007,4 hPa 0,0 l/m 2,7 km/h N 17,2 C 27,5 C 11,3 km/h
05.06.2018 13:00 28,8 C 48 % 1006,8 hPa 0,0 l/m 2,1 km/h N 16,6 C 28,8 C 10,1 km/h
05.06.2018 14:00 28,5 C 47 % 1006,5 hPa 0,0 l/m 4,5 km/h N 16,2 C 28,5 C 15,7 km/h
05.06.2018 15:00 28,3 C 47 % 1006,2 hPa 0,0 l/m 5,9 km/h N 15,9 C 28,3 C 19,7 km/h
05.06.2018 16:00 27,8 C 51 % 1006,3 hPa 0,0 l/m 6,8 km/h N 16,5 C 27,6 C 18,9 km/h
05.06.2018 17:00 27,0 C 49 % 1006,6 hPa 0,0 l/m 3,2 km/h N 15,3 C 27,0 C 15,3 km/h
05.06.2018 18:00 26,3 C 55 % 1006,9 hPa 0,0 l/m 3,0 km/h N 16,4 C 26,3 C 12,1 km/h
05.06.2018 19:00 26,0 C 58 % 1007,3 hPa 0,0 l/m 0,6 km/h N 17,0 C 26,0 C 6,0 km/h
05.06.2018 20:00 25,4 C 61 % 1007,9 hPa 0,0 l/m 0,0 km/h N 17,1 C 25,4 C 0,4 km/h
05.06.2018 21:00 23,2 C 67 % 1008,4 hPa 0,0 l/m 0,0 km/h N 16,8 C 23,2 C 0,0 km/h
05.06.2018 22:00 21,0 C 75 % 1008,7 hPa 0,0 l/m 0,0 km/h N 16,3 C 21,0 C 1,2 km/h
05.06.2018 23:00 20,4 C 77 % 1009,1 hPa 0,0 l/m 1,0 km/h N 16,2 C 20,4 C 3,6 km/h
06.06.2018 00:00 20,3 C 76 % 1009,4 hPa 0,0 l/m 0,2 km/h N 15,8 C 20,3 C 0,8 km/h
06.06.2018 01:00 19,2 C 79 % 1009,7 hPa 0,0 l/m 0,4 km/h N 15,3 C 19,2 C 2,0 km/h
06.06.2018 02:00 18,8 C 79 % 1010,0 hPa 0,0 l/m 0,2 km/h N 15,0 C 18,8 C 2,0 km/h
06.06.2018 03:00 18,0 C 79 % 1010,1 hPa 0,0 l/m 0,0 km/h N 14,3 C 18,0 C 0,0 km/h
06.06.2018 04:00 17,2 C 81 % 1010,3 hPa 0,0 l/m 0,0 km/h N 13,8 C 17,2 C 0,0 km/h
06.06.2018 05:00 16,7 C 81 % 1010,7 hPa 0,0 l/m 0,0 km/h N 13,4 C 16,7 C 0,4 km/h
06.06.2018 06:00 18,1 C 81 % 1011,1 hPa 0,0 l/m 1,0 km/h N 14,8 C 18,1 C 5,6 km/h
06.06.2018 07:00 20,1 C 76 % 1011,4 hPa 0,0 l/m 1,6 km/h N 15,7 C 20,1 C 7,2 km/h
06.06.2018 08:00 21,3 C 73 % 1011,8 hPa 0,0 l/m 2,5 km/h N 16,2 C 21,3 C 7,6 km/h
06.06.2018 09:00 23,0 C 69 % 1012,1 hPa 0,0 l/m 2,1 km/h N 16,8 C 23,0 C 7,6 km/h
06.06.2018 10:00 25,2 C 63 % 1012,2 hPa 0,0 l/m 1,3 km/h N 17,5 C 25,2 C 7,6 km/h
06.06.2018 11:00 26,9 C 59 % 1012,1 hPa 0,0 l/m 0,8 km/h N 18,1 C 26,9 C 7,6 km/h
06.06.2018 12:00 27,4 C 56 % 1011,9 hPa 0,0 l/m 1,7 km/h N 17,7 C 27,4 C 10,5 km/h
06.06.2018 13:00 26,4 C 59 % 1012,0 hPa 0,0 l/m 0,1 km/h N 17,8 C 26,4 C 3,2 km/h
06.06.2018 14:00 26,2 C 62 % 1011,6 hPa 0,0 l/m 0,1 km/h N 18,4 C 26,2 C 2,0 km/h
06.06.2018 15:00 26,8 C 62 % 1011,2 hPa 0,0 l/m 1,0 km/h N 19,0 C 26,8 C 6,4 km/h
06.06.2018 16:00 25,9 C 63 % 1011,8 hPa 0,0 l/m 2,6 km/h N 18,3 C 25,7 C 12,0 km/h
06.06.2018 17:00 20,5 C 77 % 1013,3 hPa 0,0 l/m 3,6 km/h N 16,4 C 20,5 C 18,9 km/h
06.06.2018 18:00 20,1 C 79 % 1013,7 hPa 0,0 l/m 1,2 km/h N 16,4 C 20,1 C 8,9 km/h
06.06.2018 19:00 20,2 C 79 % 1013,5 hPa 0,0 l/m 0,4 km/h N 16,5 C 20,2 C 4,4 km/h
06.06.2018 20:00 20,0 C 78 % 1014,0 hPa 0,0 l/m 0,5 km/h N 16,1 C 20,0 C 5,2 km/h
06.06.2018 21:00 18,7 C 80 % 1014,7 hPa 0,0 l/m 0,1 km/h N 15,0 C 18,7 C 2,0 km/h
06.06.2018 22:00 17,7 C 81 % 1014,8 hPa 0,0 l/m 0,0 km/h N 14,3 C 17,7 C 0,0 km/h
06.06.2018 23:00 17,1 C 82 % 1014,8 hPa 0,0 l/m 0,0 km/h N 13,9 C 17,1 C 0,4 km/h
07.06.2018 00:00 16,4 C 82 % 1014,9 hPa 0,0 l/m 0,0 km/h N 13,3 C 16,4 C 0,0 km/h
07.06.2018 01:00 16,6 C 82 % 1014,8 hPa 0,0 l/m 0,0 km/h N 13,6 C 16,6 C 0,0 km/h
07.06.2018 02:00 17,4 C 82 % 1014,3 hPa 0,0 l/m 0,0 km/h N 14,3 C 17,4 C 0,0 km/h
07.06.2018 03:00 17,8 C 82 % 1014,0 hPa 0,0 l/m 0,0 km/h N 14,7 C 17,8 C 1,2 km/h
07.06.2018 04:00 18,0 C 82 % 1014,4 hPa 0,0 l/m 0,1 km/h N 14,9 C 18,0 C 2,4 km/h
07.06.2018 05:00 17,9 C 82 % 1014,8 hPa 0,0 l/m 0,2 km/h N 14,8 C 17,9 C 6,8 km/h
07.06.2018 06:00 17,7 C 82 % 1015,3 hPa 0,0 l/m 0,3 km/h N 14,6 C 17,7 C 5,6 km/h
07.06.2018 07:00 18,0 C 82 % 1015,7 hPa 0,0 l/m 0,3 km/h N 14,9 C 18,0 C 5,6 km/h
07.06.2018 08:00 18,8 C 82 % 1016,0 hPa 0,0 l/m 0,3 km/h N 15,6 C 18,8 C 4,0 km/h
07.06.2018 09:00 19,4 C 80 % 1016,3 hPa 0,0 l/m 0,2 km/h N 15,8 C 19,4 C 4,0 km/h
07.06.2018 10:00 19,5 C 78 % 1016,6 hPa 0,0 l/m 0,2 km/h N 15,5 C 19,5 C 4,0 km/h
07.06.2018 11:00 19,6 C 79 % 1016,8 hPa 0,0 l/m 0,1 km/h N 15,9 C 19,6 C 2,4 km/h
07.06.2018 12:00 19,8 C 79 % 1016,8 hPa 0,0 l/m 0,2 km/h N 16,1 C 19,8 C 3,2 km/h
07.06.2018 13:00 21,0 C 78 % 1016,6 hPa 0,0 l/m 0,2 km/h N 17,0 C 21,0 C 4,8 km/h
07.06.2018 14:00 22,7 C 74 % 1015,9 hPa 0,0 l/m 0,5 km/h N 17,8 C 22,7 C 6,4 km/h
07.06.2018 15:00 23,4 C 72 % 1015,4 hPa 0,0 l/m 0,5 km/h N 17,9 C 23,4 C 5,2 km/h
07.06.2018 16:00 23,3 C 73 % 1015,0 hPa 0,0 l/m 0,5 km/h N 18,2 C 23,3 C 6,8 km/h
07.06.2018 17:00 23,5 C 72 % 1014,6 hPa 0,0 l/m 0,3 km/h N 18,1 C 23,5 C 4,8 km/h
07.06.2018 18:00 23,8 C 71 % 1014,3 hPa 0,0 l/m 0,2 km/h N 18,1 C 23,8 C 4,4 km/h
07.06.2018 19:00 23,4 C 72 % 1014,0 hPa 0,0 l/m 0,0 km/h N 18,1 C 23,4 C 1,6 km/h
07.06.2018 20:00 22,8 C 75 % 1014,0 hPa 0,0 l/m 0,0 km/h N 18,0 C 22,8 C 1,2 km/h
07.06.2018 21:00 22,0 C 77 % 1014,4 hPa 0,0 l/m 0,0 km/h N 17,7 C 22,0 C 0,0 km/h
07.06.2018 22:00 21,5 C 78 % 1014,4 hPa 0,0 l/m 0,0 km/h N 17,5 C 21,5 C 0,0 km/h
07.06.2018 23:00 20,7 C 79 % 1014,3 hPa 0,0 l/m 0,0 km/h N 17,0 C 20,7 C 0,8 km/h
08.06.2018 00:00 20,5 C 81 % 1014,1 hPa 0,0 l/m 0,2 km/h N 17,1 C 20,5 C 4,4 km/h
08.06.2018 01:00 19,9 C 79 % 1013,5 hPa 0,0 l/m 0,1 km/h N 16,2 C 19,9 C 2,0 km/h
08.06.2018 02:00 18,8 C 80 % 1012,9 hPa 0,0 l/m 0,0 km/h N 15,3 C 18,8 C 0,8 km/h
08.06.2018 03:00 18,1 C 81 % 1012,8 hPa 0,0 l/m 0,0 km/h N 14,9 C 18,1 C 0,8 km/h
08.06.2018 04:00 17,4 C 82 % 1012,7 hPa 0,0 l/m 0,0 km/h N 14,3 C 17,4 C 0,4 km/h
08.06.2018 05:00 17,4 C 82 % 1012,7 hPa 0,0 l/m 0,0 km/h N 14,3 C 17,4 C 0,4 km/h
08.06.2018 06:00 17,9 C 82 % 1012,9 hPa 0,0 l/m 0,0 km/h N 14,8 C 17,9 C 1,6 km/h
08.06.2018 07:00 18,4 C 82 % 1013,1 hPa 0,0 l/m 0,1 km/h N 15,2 C 18,4 C 1,6 km/h
08.06.2018 08:00 19,0 C 82 % 1013,4 hPa 0,0 l/m 0,1 km/h N 15,9 C 19,0 C 3,2 km/h
08.06.2018 09:00 20,1 C 82 % 1013,4 hPa 0,0 l/m 0,2 km/h N 16,9 C 20,1 C 2,8 km/h
08.06.2018 10:00 22,5 C 80 % 1013,1 hPa 0,0 l/m 0,5 km/h N 18,7 C 22,5 C 6,4 km/h
08.06.2018 11:00 24,5 C 75 % 1012,5 hPa 0,0 l/m 0,4 km/h N 19,7 C 24,5 C 5,6 km/h
08.06.2018 12:00 26,8 C 70 % 1011,9 hPa 0,0 l/m 0,6 km/h N 20,9 C 26,8 C 7,2 km/h
08.06.2018 13:00 28,0 C 65 % 1011,5 hPa 0,0 l/m 1,2 km/h N 20,8 C 28,0 C 9,6 km/h
08.06.2018 14:00 28,9 C 61 % 1011,1 hPa 0,0 l/m 1,0 km/h N 20,5 C 28,9 C 7,2 km/h
08.06.2018 15:00 29,1 C 56 % 1010,7 hPa 0,0 l/m 1,3 km/h N 19,4 C 29,1 C 8,0 km/h
08.06.2018 16:00 28,6 C 56 % 1010,0 hPa 0,0 l/m 1,3 km/h N 18,8 C 28,6 C 8,9 km/h
08.06.2018 17:00 28,4 C 56 % 1009,3 hPa 0,0 l/m 1,6 km/h N 18,6 C 28,4 C 8,0 km/h
08.06.2018 18:00 28,7 C 56 % 1009,4 hPa 0,0 l/m 1,9 km/h N 18,9 C 28,7 C 10,5 km/h
08.06.2018 19:00 27,9 C 60 % 1009,4 hPa 0,0 l/m 1,1 km/h N 19,3 C 27,9 C 9,3 km/h
08.06.2018 20:00 26,8 C 63 % 1009,4 hPa 0,0 l/m 0,5 km/h N 19,2 C 26,8 C 5,2 km/h
08.06.2018 21:00 25,4 C 69 % 1009,1 hPa 0,0 l/m 0,0 km/h N 19,2 C 25,4 C 0,8 km/h
08.06.2018 22:00 23,8 C 74 % 1009,4 hPa 0,0 l/m 0,0 km/h N 18,9 C 23,8 C 0,4 km/h
08.06.2018 23:00 23,0 C 77 % 1009,4 hPa 0,0 l/m 0,0 km/h N 18,8 C 23,0 C 0,8 km/h
09.06.2018 00:00 22,5 C 79 % 1010,1 hPa 0,0 l/m 0,1 km/h N 18,7 C 22,5 C 2,8 km/h
09.06.2018 01:00 21,8 C 78 % 1010,5 hPa 0,0 l/m 2,1 km/h N 17,8 C 21,8 C 12,5 km/h
09.06.2018 02:00 19,7 C 79 % 1010,5 hPa 0,5 l/m 1,2 km/h N 15,9 C 19,7 C 13,7 km/h
09.06.2018 03:00 18,8 C 81 % 1008,6 hPa 0,5 l/m 0,1 km/h N 15,4 C 18,8 C 2,8 km/h
09.06.2018 04:00 18,1 C 81 % 1007,5 hPa 0,0 l/m 0,5 km/h N 14,8 C 18,1 C 4,4 km/h
09.06.2018 05:00 17,9 C 82 % 1009,6 hPa 0,0 l/m 0,2 km/h N 14,8 C 17,9 C 3,6 km/h
09.06.2018 06:00 17,8 C 82 % 1010,4 hPa 0,0 l/m 0,0 km/h N 14,6 C 17,8 C 1,2 km/h
09.06.2018 07:00 18,1 C 82 % 1010,5 hPa 0,0 l/m 0,1 km/h N 15,0 C 18,1 C 1,2 km/h
09.06.2018 08:00 18,9 C 82 % 1011,0 hPa 0,0 l/m 0,2 km/h N 15,7 C 18,9 C 3,2 km/h
09.06.2018 09:00 19,9 C 81 % 1010,9 hPa 0,0 l/m 0,9 km/h N 16,6 C 19,9 C 6,0 km/h
09.06.2018 10:00 22,7 C 74 % 1010,6 hPa 0,0 l/m 1,0 km/h N 17,7 C 22,7 C 5,2 km/h
09.06.2018 11:00 25,1 C 66 % 1010,7 hPa 0,0 l/m 0,6 km/h N 18,3 C 25,1 C 6,4 km/h
09.06.2018 12:00 25,5 C 65 % 1011,2 hPa 0,0 l/m 0,6 km/h N 18,3 C 25,5 C 7,6 km/h
09.06.2018 13:00 24,6 C 69 % 1011,6 hPa 0,0 l/m 0,6 km/h N 18,4 C 24,6 C 6,8 km/h
09.06.2018 14:00 24,4 C 69 % 1011,5 hPa 0,0 l/m 0,5 km/h N 18,2 C 24,4 C 5,6 km/h
09.06.2018 15:00 25,3 C 65 % 1010,4 hPa 0,0 l/m 0,6 km/h N 18,1 C 25,3 C 5,2 km/h
09.06.2018 16:00 25,6 C 61 % 1009,6 hPa 0,0 l/m 1,5 km/h N 17,6 C 25,6 C 8,4 km/h
09.06.2018 17:00 26,0 C 59 % 1009,1 hPa 0,0 l/m 0,8 km/h N 17,5 C 26,0 C 7,6 km/h
09.06.2018 18:00 27,3 C 52 % 1009,3 hPa 0,0 l/m 0,4 km/h N 16,6 C 27,3 C 6,4 km/h
09.06.2018 19:00 26,5 C 60 % 1009,7 hPa 0,0 l/m 0,2 km/h N 18,2 C 26,5 C 4,4 km/h
09.06.2018 20:00 24,6 C 67 % 1009,8 hPa 0,0 l/m 0,1 km/h N 17,9 C 24,6 C 1,6 km/h
09.06.2018 21:00 22,2 C 74 % 1010,2 hPa 0,0 l/m 0,0 km/h N 17,3 C 22,2 C 0,4 km/h
09.06.2018 22:00 20,2 C 78 % 1010,6 hPa 0,0 l/m 0,0 km/h N 16,2 C 20,2 C 0,0 km/h
09.06.2018 23:00 19,0 C 80 % 1010,5 hPa 0,0 l/m 0,0 km/h N 15,4 C 19,0 C 0,0 km/h
10.06.2018 00:00 18,1 C 81 % 1010,1 hPa 0,0 l/m 0,0 km/h N 14,9 C 18,1 C 0,4 km/h
10.06.2018 01:00 17,5 C 82 % 1009,9 hPa 0,0 l/m 0,0 km/h N 14,4 C 17,5 C 0,0 km/h
10.06.2018 02:00 17,0 C 82 % 1009,8 hPa 0,0 l/m 0,0 km/h N 13,9 C 17,0 C 0,4 km/h
10.06.2018 03:00 16,6 C 82 % 1009,7 hPa 0,0 l/m 0,0 km/h N 13,6 C 16,6 C 0,4 km/h
10.06.2018 04:00 16,2 C 82 % 1009,7 hPa 0,0 l/m 0,0 km/h N 13,1 C 16,2 C 0,4 km/h
10.06.2018 05:00 15,8 C 82 % 1010,0 hPa 0,0 l/m 0,0 km/h N 12,7 C 15,8 C 0,4 km/h
10.06.2018 06:00 16,5 C 83 % 1010,2 hPa 0,0 l/m 0,1 km/h N 13,5 C 16,5 C 1,6 km/h
10.06.2018 07:00 18,5 C 82 % 1010,2 hPa 0,0 l/m 0,1 km/h N 15,3 C 18,5 C 2,8 km/h
10.06.2018 08:00 22,0 C 77 % 1010,1 hPa 0,0 l/m 1,7 km/h N 17,8 C 22,0 C 10,1 km/h
10.06.2018 09:00 24,7 C 69 % 1010,1 hPa 0,0 l/m 3,9 km/h N 18,5 C 24,7 C 12,1 km/h
10.06.2018 10:00 26,7 C 62 % 1009,8 hPa 0,0 l/m 1,9 km/h N 18,7 C 26,7 C 10,9 km/h
10.06.2018 11:00 28,9 C 54 % 1009,3 hPa 0,0 l/m 0,4 km/h N 18,4 C 28,9 C 4,8 km/h
10.06.2018 12:00 29,6 C 51 % 1009,1 hPa 0,0 l/m 0,5 km/h N 18,3 C 29,6 C 6,0 km/h
10.06.2018 13:00 27,5 C 61 % 1009,4 hPa 0,8 l/m 0,3 km/h N 18,9 C 27,5 C 5,2 km/h
10.06.2018 14:00 25,6 C 74 % 1009,1 hPa 0,0 l/m 0,0 km/h N 20,4 C 25,6 C 2,0 km/h
10.06.2018 15:00 26,4 C 71 % 1009,0 hPa 0,3 l/m 0,1 km/h N 20,6 C 26,4 C 2,8 km/h
10.06.2018 16:00 26,6 C 67 % 1008,7 hPa 0,0 l/m 0,2 km/h N 19,9 C 26,6 C 4,0 km/h
10.06.2018 17:00 26,8 C 65 % 1008,1 hPa 0,0 l/m 0,1 km/h N 19,5 C 26,8 C 2,4 km/h
10.06.2018 18:00 26,8 C 66 % 1007,8 hPa 0,0 l/m 0,0 km/h N 19,9 C 26,8 C 1,2 km/h
10.06.2018 19:00 27,0 C 66 % 1007,9 hPa 0,0 l/m 0,0 km/h N 20,0 C 27,0 C 1,2 km/h
10.06.2018 20:00 27,3 C 61 % 1007,8 hPa 0,0 l/m 0,0 km/h N 19,1 C 27,3 C 0,4 km/h
10.06.2018 21:00 24,6 C 71 % 1007,9 hPa 0,0 l/m 0,1 km/h N 18,8 C 24,6 C 1,2 km/h
10.06.2018 22:00 22,5 C 78 % 1008,2 hPa 0,0 l/m 0,3 km/h N 18,4 C 22,5 C 2,8 km/h
10.06.2018 23:00 21,7 C 80 % 1008,2 hPa 0,0 l/m 0,1 km/h N 18,1 C 21,7 C 1,6 km/h
Min-Datum _ 05.06.18 05.06.18 05.06.18 - 04.06.18 - 05.06.18 05.06.18 04.06.18
_ Min-Zeit 05:30 13:30 16:45 - 00:15 - 05:30 05:30 00:15
Minimum _ 15,5 C 45 % 1006,1 hPa - 0,0 km/h - 12,4 C 15,5 C 0,0 km/h
Max-Datum _ 10.06.18 10.06.18 07.06.18 10.06.18 05.06.18 - 08.06.18 10.06.18 06.06.18
_ Max-Zeit 12:00 06:15 12:30 13:30 16:00 - 12:15 11:45 16:45
Maximum _ 30,4 C 83 % 1016,9 hPa 0,8 l/m 10,1 km/h
N
- 21,6 C 30,1 C 38,6 km/h
N
Durchschnitt _ 22,1 C 72 % 1010,7 hPa #2,1 l/m 0,7 km/h N 16,6 C 22,1 C 4,5 km/h